sensor_id;sensor_type;location;lat;lon;timestamp;P1;durP1;ratioP1;P2;durP2;ratioP2
14584;SDS011;7379;51.506;11.876;2023-04-15T00:02:14;6.20;;;5.70;;
14584;SDS011;7379;51.506;11.876;2023-04-15T00:04:42;6.45;;;5.85;;
14584;SDS011;7379;51.506;11.876;2023-04-15T00:07:11;6.55;;;5.95;;
14584;SDS011;7379;51.506;11.876;2023-04-15T00:09:38;7.40;;;6.80;;
14584;SDS011;7379;51.506;11.876;2023-04-15T00:12:06;6.78;;;6.10;;
14584;SDS011;7379;51.506;11.876;2023-04-15T00:14:33;6.75;;;6.15;;
14584;SDS011;7379;51.506;11.876;2023-04-15T00:17:00;6.53;;;5.93;;
14584;SDS011;7379;51.506;11.876;2023-04-15T00:19:27;6.63;;;6.03;;
14584;SDS011;7379;51.506;11.876;2023-04-15T00:21:54;6.75;;;6.15;;
14584;SDS011;7379;51.506;11.876;2023-04-15T00:24:22;5.90;;;5.40;;
14584;SDS011;7379;51.506;11.876;2023-04-15T00:26:49;6.15;;;5.55;;
14584;SDS011;7379;51.506;11.876;2023-04-15T00:29:16;5.90;;;5.40;;
14584;SDS011;7379;51.506;11.876;2023-04-15T00:31:43;6.07;;;5.47;;
14584;SDS011;7379;51.506;11.876;2023-04-15T00:34:10;5.85;;;5.35;;
14584;SDS011;7379;51.506;11.876;2023-04-15T00:36:36;5.88;;;5.38;;
14584;SDS011;7379;51.506;11.876;2023-04-15T00:39:03;5.53;;;5.03;;
14584;SDS011;7379;51.506;11.876;2023-04-15T00:41:31;5.90;;;5.40;;
14584;SDS011;7379;51.506;11.876;2023-04-15T00:44:00;6.82;;;6.22;;
14584;SDS011;7379;51.506;11.876;2023-04-15T00:46:27;6.47;;;5.90;;
14584;SDS011;7379;51.506;11.876;2023-04-15T00:48:56;6.53;;;5.93;;
14584;SDS011;7379;51.506;11.876;2023-04-15T00:51:22;6.65;;;6.05;;
14584;SDS011;7379;51.506;11.876;2023-04-15T00:53:49;6.95;;;6.35;;
14584;SDS011;7379;51.506;11.876;2023-04-15T00:56:17;6.50;;;5.90;;
14584;SDS011;7379;51.506;11.876;2023-04-15T00:58:47;6.30;;;5.47;;
14584;SDS011;7379;51.506;11.876;2023-04-15T01:01:14;6.70;;;6.10;;
14584;SDS011;7379;51.506;11.876;2023-04-15T01:03:41;5.90;;;5.40;;
14584;SDS011;7379;51.506;11.876;2023-04-15T01:06:07;6.03;;;5.43;;
14584;SDS011;7379;51.506;11.876;2023-04-15T01:08:35;5.70;;;5.20;;
14584;SDS011;7379;51.506;11.876;2023-04-15T01:11:02;6.07;;;5.57;;
14584;SDS011;7379;51.506;11.876;2023-04-15T01:13:29;5.65;;;5.15;;
14584;SDS011;7379;51.506;11.876;2023-04-15T01:15:58;5.88;;;5.38;;
14584;SDS011;7379;51.506;11.876;2023-04-15T01:18:26;6.18;;;5.68;;
14584;SDS011;7379;51.506;11.876;2023-04-15T01:20:54;5.90;;;5.40;;
14584;SDS011;7379;51.506;11.876;2023-04-15T01:23:21;5.90;;;5.30;;
14584;SDS011;7379;51.506;11.876;2023-04-15T01:25:49;5.53;;;5.03;;
14584;SDS011;7379;51.506;11.876;2023-04-15T01:28:17;6.05;;;5.55;;
14584;SDS011;7379;51.506;11.876;2023-04-15T01:30:44;5.78;;;5.18;;
14584;SDS011;7379;51.506;11.876;2023-04-15T01:33:11;5.63;;;5.13;;
14584;SDS011;7379;51.506;11.876;2023-04-15T01:35:38;5.32;;;4.82;;
14584;SDS011;7379;51.506;11.876;2023-04-15T01:38:05;5.90;;;5.40;;
14584;SDS011;7379;51.506;11.876;2023-04-15T01:40:34;5.60;;;5.10;;
14584;SDS011;7379;51.506;11.876;2023-04-15T01:43:02;5.65;;;5.15;;
14584;SDS011;7379;51.506;11.876;2023-04-15T01:45:29;5.47;;;4.95;;
14584;SDS011;7379;51.506;11.876;2023-04-15T01:47:56;4.88;;;4.45;;
14584;SDS011;7379;51.506;11.876;2023-04-15T01:50:22;5.07;;;4.57;;
14584;SDS011;7379;51.506;11.876;2023-04-15T01:52:50;4.68;;;4.10;;
14584;SDS011;7379;51.506;11.876;2023-04-15T01:55:16;4.57;;;4.18;;
14584;SDS011;7379;51.506;11.876;2023-04-15T01:57:43;4.75;;;4.35;;
14584;SDS011;7379;51.506;11.876;2023-04-15T02:00:12;4.50;;;4.10;;
14584;SDS011;7379;51.506;11.876;2023-04-15T02:02:39;4.80;;;4.30;;
14584;SDS011;7379;51.506;11.876;2023-04-15T02:05:06;4.63;;;4.22;;
14584;SDS011;7379;51.506;11.876;2023-04-15T02:07:33;5.00;;;4.50;;
14584;SDS011;7379;51.506;11.876;2023-04-15T02:10:01;4.63;;;4.22;;
14584;SDS011;7379;51.506;11.876;2023-04-15T02:12:28;4.68;;;4.28;;
14584;SDS011;7379;51.506;11.876;2023-04-15T02:14:54;4.63;;;4.10;;
14584;SDS011;7379;51.506;11.876;2023-04-15T02:17:22;4.30;;;3.90;;
14584;SDS011;7379;51.506;11.876;2023-04-15T02:19:49;5.60;;;4.00;;
14584;SDS011;7379;51.506;11.876;2023-04-15T02:22:16;4.35;;;3.95;;
14584;SDS011;7379;51.506;11.876;2023-04-15T02:24:43;4.35;;;3.95;;
14584;SDS011;7379;51.506;11.876;2023-04-15T02:27:14;4.63;;;4.22;;
14584;SDS011;7379;51.506;11.876;2023-04-15T02:29:41;4.85;;;3.83;;
14584;SDS011;7379;51.506;11.876;2023-04-15T02:32:08;4.45;;;4.05;;
14584;SDS011;7379;51.506;11.876;2023-04-15T02:34:37;4.50;;;4.10;;
14584;SDS011;7379;51.506;11.876;2023-04-15T02:37:06;4.57;;;3.88;;
14584;SDS011;7379;51.506;11.876;2023-04-15T02:39:33;4.32;;;3.92;;
14584;SDS011;7379;51.506;11.876;2023-04-15T02:42:00;4.22;;;3.78;;
14584;SDS011;7379;51.506;11.876;2023-04-15T02:44:27;4.15;;;3.75;;
14584;SDS011;7379;51.506;11.876;2023-04-15T02:46:55;3.70;;;3.40;;
14584;SDS011;7379;51.506;11.876;2023-04-15T02:49:22;4.43;;;4.03;;
14584;SDS011;7379;51.506;11.876;2023-04-15T02:51:50;4.20;;;3.80;;
14584;SDS011;7379;51.506;11.876;2023-04-15T02:54:18;4.30;;;3.90;;
14584;SDS011;7379;51.506;11.876;2023-04-15T02:56:46;4.20;;;3.80;;
14584;SDS011;7379;51.506;11.876;2023-04-15T02:59:14;3.90;;;3.60;;
14584;SDS011;7379;51.506;11.876;2023-04-15T03:01:40;4.13;;;3.73;;
14584;SDS011;7379;51.506;11.876;2023-04-15T03:04:07;4.27;;;3.87;;
14584;SDS011;7379;51.506;11.876;2023-04-15T03:06:34;4.90;;;3.90;;
14584;SDS011;7379;51.506;11.876;2023-04-15T03:09:02;4.17;;;3.77;;
14584;SDS011;7379;51.506;11.876;2023-04-15T03:11:29;3.77;;;3.43;;
14584;SDS011;7379;51.506;11.876;2023-04-15T03:13:56;7.25;;;4.00;;
14584;SDS011;7379;51.506;11.876;2023-04-15T03:16:23;3.95;;;3.55;;
14584;SDS011;7379;51.506;11.876;2023-04-15T03:18:50;4.17;;;3.73;;
14584;SDS011;7379;51.506;11.876;2023-04-15T03:21:17;4.22;;;3.80;;
14584;SDS011;7379;51.506;11.876;2023-04-15T03:23:44;4.83;;;3.63;;
14584;SDS011;7379;51.506;11.876;2023-04-15T03:26:23;4.32;;;3.78;;
14584;SDS011;7379;51.506;11.876;2023-04-15T03:28:52;3.80;;;3.45;;
14584;SDS011;7379;51.506;11.876;2023-04-15T03:31:19;3.72;;;3.42;;
14584;SDS011;7379;51.506;11.876;2023-04-15T03:33:46;4.35;;;3.95;;
14584;SDS011;7379;51.506;11.876;2023-04-15T03:36:12;4.70;;;3.70;;
14584;SDS011;7379;51.506;11.876;2023-04-15T03:38:39;4.47;;;4.07;;
14584;SDS011;7379;51.506;11.876;2023-04-15T03:41:06;4.75;;;3.63;;
14584;SDS011;7379;51.506;11.876;2023-04-15T03:43:35;4.30;;;3.92;;
14584;SDS011;7379;51.506;11.876;2023-04-15T03:46:01;4.53;;;3.70;;
14584;SDS011;7379;51.506;11.876;2023-04-15T03:48:28;3.67;;;3.38;;
14584;SDS011;7379;51.506;11.876;2023-04-15T03:50:55;3.70;;;3.40;;
14584;SDS011;7379;51.506;11.876;2023-04-15T03:53:22;4.17;;;3.70;;
14584;SDS011;7379;51.506;11.876;2023-04-15T03:55:49;4.07;;;3.70;;
14584;SDS011;7379;51.506;11.876;2023-04-15T03:58:16;4.10;;;3.70;;
14584;SDS011;7379;51.506;11.876;2023-04-15T04:00:44;4.20;;;3.80;;
14584;SDS011;7379;51.506;11.876;2023-04-15T04:03:11;4.10;;;3.80;;
14584;SDS011;7379;51.506;11.876;2023-04-15T04:05:38;3.80;;;3.50;;
14584;SDS011;7379;51.506;11.876;2023-04-15T04:08:05;4.28;;;3.88;;
14584;SDS011;7379;51.506;11.876;2023-04-15T04:10:32;4.25;;;3.85;;
14584;SDS011;7379;51.506;11.876;2023-04-15T04:12:59;3.92;;;3.53;;
14584;SDS011;7379;51.506;11.876;2023-04-15T04:15:26;4.30;;;3.90;;
14584;SDS011;7379;51.506;11.876;2023-04-15T04:17:54;3.90;;;3.60;;
14584;SDS011;7379;51.506;11.876;2023-04-15T04:20:21;3.97;;;3.67;;
14584;SDS011;7379;51.506;11.876;2023-04-15T04:22:48;4.20;;;3.80;;
14584;SDS011;7379;51.506;11.876;2023-04-15T04:25:15;4.23;;;3.83;;
14584;SDS011;7379;51.506;11.876;2023-04-15T04:27:42;4.10;;;3.70;;
14584;SDS011;7379;51.506;11.876;2023-04-15T04:30:10;4.13;;;3.73;;
14584;SDS011;7379;51.506;11.876;2023-04-15T04:32:37;3.72;;;3.42;;
14584;SDS011;7379;51.506;11.876;2023-04-15T04:35:06;5.23;;;3.87;;
14584;SDS011;7379;51.506;11.876;2023-04-15T04:37:33;4.27;;;3.87;;
14584;SDS011;7379;51.506;11.876;2023-04-15T04:40:00;4.30;;;3.90;;
14584;SDS011;7379;51.506;11.876;2023-04-15T04:42:27;4.18;;;3.78;;
14584;SDS011;7379;51.506;11.876;2023-04-15T04:44:55;4.03;;;3.63;;
14584;SDS011;7379;51.506;11.876;2023-04-15T04:47:22;4.20;;;3.80;;
14584;SDS011;7379;51.506;11.876;2023-04-15T04:49:49;4.50;;;4.07;;
14584;SDS011;7379;51.506;11.876;2023-04-15T04:52:17;4.57;;;4.18;;
14584;SDS011;7379;51.506;11.876;2023-04-15T04:54:43;5.13;;;4.27;;
14584;SDS011;7379;51.506;11.876;2023-04-15T04:57:11;4.60;;;4.20;;
14584;SDS011;7379;51.506;11.876;2023-04-15T04:59:38;4.53;;;3.80;;
14584;SDS011;7379;51.506;11.876;2023-04-15T05:02:05;4.30;;;3.90;;
14584;SDS011;7379;51.506;11.876;2023-04-15T05:04:32;4.50;;;4.10;;
14584;SDS011;7379;51.506;11.876;2023-04-15T05:06:59;4.07;;;3.67;;
14584;SDS011;7379;51.506;11.876;2023-04-15T05:09:27;4.20;;;3.80;;
14584;SDS011;7379;51.506;11.876;2023-04-15T05:11:56;4.37;;;3.97;;
14584;SDS011;7379;51.506;11.876;2023-04-15T05:14:23;4.10;;;3.70;;
14584;SDS011;7379;51.506;11.876;2023-04-15T05:16:50;4.43;;;4.03;;
14584;SDS011;7379;51.506;11.876;2023-04-15T05:19:16;4.50;;;4.10;;
14584;SDS011;7379;51.506;11.876;2023-04-15T05:21:43;4.30;;;3.90;;
14584;SDS011;7379;51.506;11.876;2023-04-15T05:24:10;4.20;;;3.80;;
14584;SDS011;7379;51.506;11.876;2023-04-15T05:26:38;4.43;;;4.03;;
14584;SDS011;7379;51.506;11.876;2023-04-15T05:29:06;4.10;;;3.70;;
14584;SDS011;7379;51.506;11.876;2023-04-15T05:31:32;4.13;;;3.73;;
14584;SDS011;7379;51.506;11.876;2023-04-15T05:33:59;4.30;;;3.90;;
14584;SDS011;7379;51.506;11.876;2023-04-15T05:36:26;4.17;;;3.77;;
14584;SDS011;7379;51.506;11.876;2023-04-15T05:38:53;4.80;;;4.40;;
14584;SDS011;7379;51.506;11.876;2023-04-15T05:41:20;4.67;;;4.00;;
14584;SDS011;7379;51.506;11.876;2023-04-15T05:43:48;4.53;;;4.00;;
14584;SDS011;7379;51.506;11.876;2023-04-15T05:46:15;4.13;;;3.73;;
14584;SDS011;7379;51.506;11.876;2023-04-15T05:48:42;4.20;;;3.80;;
14584;SDS011;7379;51.506;11.876;2023-04-15T05:51:08;3.93;;;3.63;;
14584;SDS011;7379;51.506;11.876;2023-04-15T05:53:35;4.13;;;3.73;;
14584;SDS011;7379;51.506;11.876;2023-04-15T05:56:03;4.30;;;3.90;;
14584;SDS011;7379;51.506;11.876;2023-04-15T05:58:30;4.40;;;4.00;;
14584;SDS011;7379;51.506;11.876;2023-04-15T06:00:58;4.40;;;4.00;;
14584;SDS011;7379;51.506;11.876;2023-04-15T06:03:25;4.60;;;3.90;;
14584;SDS011;7379;51.506;11.876;2023-04-15T06:05:51;4.50;;;4.10;;
14584;SDS011;7379;51.506;11.876;2023-04-15T06:08:18;4.50;;;4.10;;
14584;SDS011;7379;51.506;11.876;2023-04-15T06:10:45;4.30;;;3.90;;
14584;SDS011;7379;51.506;11.876;2023-04-15T06:13:12;4.13;;;3.67;;
14584;SDS011;7379;51.506;11.876;2023-04-15T06:15:39;4.33;;;3.93;;
14584;SDS011;7379;51.506;11.876;2023-04-15T06:18:07;4.40;;;4.00;;
14584;SDS011;7379;51.506;11.876;2023-04-15T06:20:34;4.50;;;4.10;;
14584;SDS011;7379;51.506;11.876;2023-04-15T06:23:01;4.17;;;3.77;;
14584;SDS011;7379;51.506;11.876;2023-04-15T06:25:28;4.47;;;4.03;;
14584;SDS011;7379;51.506;11.876;2023-04-15T06:27:54;4.10;;;3.70;;
14584;SDS011;7379;51.506;11.876;2023-04-15T06:30:21;4.37;;;3.97;;
14584;SDS011;7379;51.506;11.876;2023-04-15T06:32:48;4.30;;;3.97;;
14584;SDS011;7379;51.506;11.876;2023-04-15T06:35:16;3.73;;;3.40;;
14584;SDS011;7379;51.506;11.876;2023-04-15T06:37:43;3.80;;;3.50;;
14584;SDS011;7379;51.506;11.876;2023-04-15T06:40:10;4.37;;;3.97;;
14584;SDS011;7379;51.506;11.876;2023-04-15T06:42:37;4.20;;;3.90;;
14584;SDS011;7379;51.506;11.876;2023-04-15T06:45:05;4.13;;;3.73;;
14584;SDS011;7379;51.506;11.876;2023-04-15T06:47:32;4.00;;;3.70;;
14584;SDS011;7379;51.506;11.876;2023-04-15T06:49:59;3.97;;;3.57;;
14584;SDS011;7379;51.506;11.876;2023-04-15T06:52:27;4.07;;;3.60;;
14584;SDS011;7379;51.506;11.876;2023-04-15T06:54:54;3.60;;;3.30;;
14584;SDS011;7379;51.506;11.876;2023-04-15T06:57:21;3.90;;;3.50;;
14584;SDS011;7379;51.506;11.876;2023-04-15T06:59:48;3.70;;;3.40;;
14584;SDS011;7379;51.506;11.876;2023-04-15T07:02:16;3.57;;;3.27;;
14584;SDS011;7379;51.506;11.876;2023-04-15T07:04:43;4.20;;;3.80;;
14584;SDS011;7379;51.506;11.876;2023-04-15T07:07:10;4.10;;;3.70;;
14584;SDS011;7379;51.506;11.876;2023-04-15T07:09:38;4.00;;;3.60;;
14584;SDS011;7379;51.506;11.876;2023-04-15T07:12:05;4.13;;;3.63;;
14584;SDS011;7379;51.506;11.876;2023-04-15T07:14:32;3.87;;;3.47;;
14584;SDS011;7379;51.506;11.876;2023-04-15T07:16:59;3.90;;;3.60;;
14584;SDS011;7379;51.506;11.876;2023-04-15T07:19:26;4.03;;;3.63;;
14584;SDS011;7379;51.506;11.876;2023-04-15T07:21:53;4.83;;;4.20;;
14584;SDS011;7379;51.506;11.876;2023-04-15T07:24:19;4.30;;;3.90;;
14584;SDS011;7379;51.506;11.876;2023-04-15T07:26:51;4.50;;;4.03;;
14584;SDS011;7379;51.506;11.876;2023-04-15T07:29:19;4.57;;;4.07;;
14584;SDS011;7379;51.506;11.876;2023-04-15T07:31:46;4.33;;;3.93;;
14584;SDS011;7379;51.506;11.876;2023-04-15T07:34:13;4.37;;;3.97;;
14584;SDS011;7379;51.506;11.876;2023-04-15T07:36:40;4.00;;;3.60;;
14584;SDS011;7379;51.506;11.876;2023-04-15T07:39:07;4.20;;;3.80;;
14584;SDS011;7379;51.506;11.876;2023-04-15T07:41:34;4.63;;;3.53;;
14584;SDS011;7379;51.506;11.876;2023-04-15T07:44:02;3.90;;;3.47;;
14584;SDS011;7379;51.506;11.876;2023-04-15T07:46:29;3.73;;;3.33;;
14584;SDS011;7379;51.506;11.876;2023-04-15T07:48:56;3.83;;;3.53;;
14584;SDS011;7379;51.506;11.876;2023-04-15T07:51:22;3.80;;;3.50;;
14584;SDS011;7379;51.506;11.876;2023-04-15T07:53:49;3.80;;;3.50;;
14584;SDS011;7379;51.506;11.876;2023-04-15T07:56:16;3.80;;;3.47;;
14584;SDS011;7379;51.506;11.876;2023-04-15T07:58:43;3.93;;;3.53;;
14584;SDS011;7379;51.506;11.876;2023-04-15T08:01:11;3.90;;;3.50;;
14584;SDS011;7379;51.506;11.876;2023-04-15T08:03:38;4.80;;;4.30;;
14584;SDS011;7379;51.506;11.876;2023-04-15T08:06:05;4.83;;;4.30;;
14584;SDS011;7379;51.506;11.876;2023-04-15T08:08:32;4.60;;;4.20;;
14584;SDS011;7379;51.506;11.876;2023-04-15T08:10:59;4.10;;;3.70;;
14584;SDS011;7379;51.506;11.876;2023-04-15T08:13:26;4.60;;;4.20;;
14584;SDS011;7379;51.506;11.876;2023-04-15T08:18:54;4.57;;;4.00;;
14584;SDS011;7379;51.506;11.876;2023-04-15T08:21:21;4.87;;;4.33;;
14584;SDS011;7379;51.506;11.876;2023-04-15T08:23:49;4.33;;;3.93;;
14584;SDS011;7379;51.506;11.876;2023-04-15T08:26:19;4.50;;;4.10;;
14584;SDS011;7379;51.506;11.876;2023-04-15T08:28:46;4.30;;;3.90;;
14584;SDS011;7379;51.506;11.876;2023-04-15T08:31:14;4.63;;;3.97;;
14584;SDS011;7379;51.506;11.876;2023-04-15T08:33:42;4.30;;;3.90;;
14584;SDS011;7379;51.506;11.876;2023-04-15T08:36:10;4.90;;;4.50;;
14584;SDS011;7379;51.506;11.876;2023-04-15T08:38:37;5.47;;;4.50;;
14584;SDS011;7379;51.506;11.876;2023-04-15T08:41:06;5.30;;;4.70;;
14584;SDS011;7379;51.506;11.876;2023-04-15T08:43:38;5.13;;;4.63;;
14584;SDS011;7379;51.506;11.876;2023-04-15T08:46:11;4.93;;;4.50;;
14584;SDS011;7379;51.506;11.876;2023-04-15T08:48:38;5.47;;;4.77;;
14584;SDS011;7379;51.506;11.876;2023-04-15T08:51:05;5.43;;;4.80;;
14584;SDS011;7379;51.506;11.876;2023-04-15T08:53:34;5.45;;;4.95;;
14584;SDS011;7379;51.506;11.876;2023-04-15T08:56:02;5.80;;;5.20;;
14584;SDS011;7379;51.506;11.876;2023-04-15T08:58:32;5.50;;;4.97;;
14584;SDS011;7379;51.506;11.876;2023-04-15T09:01:00;6.10;;;5.23;;
14584;SDS011;7379;51.506;11.876;2023-04-15T09:03:27;6.50;;;5.40;;
14584;SDS011;7379;51.506;11.876;2023-04-15T09:05:54;6.20;;;5.60;;
14584;SDS011;7379;51.506;11.876;2023-04-15T09:08:22;7.03;;;5.90;;
14584;SDS011;7379;51.506;11.876;2023-04-15T09:10:50;6.38;;;5.75;;
14584;SDS011;7379;51.506;11.876;2023-04-15T09:13:18;6.53;;;5.80;;
14584;SDS011;7379;51.506;11.876;2023-04-15T09:15:46;7.90;;;6.60;;
14584;SDS011;7379;51.506;11.876;2023-04-15T09:18:13;7.23;;;6.23;;
14584;SDS011;7379;51.506;11.876;2023-04-15T09:20:52;7.93;;;7.13;;
14584;SDS011;7379;51.506;11.876;2023-04-15T09:23:19;7.57;;;6.60;;
14584;SDS011;7379;51.506;11.876;2023-04-15T09:25:46;7.87;;;7.10;;
14584;SDS011;7379;51.506;11.876;2023-04-15T09:28:22;9.80;;;7.55;;
14584;SDS011;7379;51.506;11.876;2023-04-15T09:30:51;10.63;;;7.57;;
14584;SDS011;7379;51.506;11.876;2023-04-15T09:33:21;9.37;;;8.37;;
14584;SDS011;7379;51.506;11.876;2023-04-15T09:35:55;9.57;;;8.40;;
14584;SDS011;7379;51.506;11.876;2023-04-15T09:38:23;12.60;;;9.10;;
14584;SDS011;7379;51.506;11.876;2023-04-15T09:40:50;12.30;;;9.50;;
14584;SDS011;7379;51.506;11.876;2023-04-15T09:43:18;12.30;;;9.83;;
14584;SDS011;7379;51.506;11.876;2023-04-15T09:45:46;12.30;;;10.47;;
14584;SDS011;7379;51.506;11.876;2023-04-15T09:48:15;12.07;;;10.50;;
14584;SDS011;7379;51.506;11.876;2023-04-15T09:50:44;14.03;;;11.27;;
14584;SDS011;7379;51.506;11.876;2023-04-15T09:53:15;16.17;;;12.53;;
14584;SDS011;7379;51.506;11.876;2023-04-15T09:55:43;16.67;;;12.07;;
14584;SDS011;7379;51.506;11.876;2023-04-15T09:58:16;16.03;;;13.07;;
14584;SDS011;7379;51.506;11.876;2023-04-15T10:00:46;23.40;;;17.37;;
14584;SDS011;7379;51.506;11.876;2023-04-15T10:03:14;23.47;;;16.20;;
14584;SDS011;7379;51.506;11.876;2023-04-15T10:05:45;22.60;;;16.80;;
14584;SDS011;7379;51.506;11.876;2023-04-15T10:08:13;21.67;;;16.33;;
14584;SDS011;7379;51.506;11.876;2023-04-15T10:10:43;20.47;;;15.70;;
14584;SDS011;7379;51.506;11.876;2023-04-15T10:13:10;21.13;;;15.93;;
14584;SDS011;7379;51.506;11.876;2023-04-15T10:15:40;21.93;;;15.53;;
14584;SDS011;7379;51.506;11.876;2023-04-15T10:18:09;22.30;;;16.53;;
14584;SDS011;7379;51.506;11.876;2023-04-15T10:20:38;21.80;;;16.93;;
14584;SDS011;7379;51.506;11.876;2023-04-15T10:23:06;23.83;;;18.37;;
14584;SDS011;7379;51.506;11.876;2023-04-15T10:25:34;22.13;;;16.90;;
14584;SDS011;7379;51.506;11.876;2023-04-15T10:28:02;22.70;;;18.00;;
14584;SDS011;7379;51.506;11.876;2023-04-15T10:30:31;22.10;;;17.37;;
14584;SDS011;7379;51.506;11.876;2023-04-15T10:33:00;24.03;;;16.83;;
14584;SDS011;7379;51.506;11.876;2023-04-15T10:35:28;23.10;;;17.07;;
14584;SDS011;7379;51.506;11.876;2023-04-15T10:37:55;21.83;;;17.10;;
14584;SDS011;7379;51.506;11.876;2023-04-15T10:40:23;21.80;;;16.77;;
14584;SDS011;7379;51.506;11.876;2023-04-15T10:42:52;21.97;;;17.13;;
14584;SDS011;7379;51.506;11.876;2023-04-15T10:45:24;22.73;;;17.53;;
14584;SDS011;7379;51.506;11.876;2023-04-15T10:47:53;22.17;;;17.37;;
14584;SDS011;7379;51.506;11.876;2023-04-15T10:50:22;24.42;;;18.38;;
14584;SDS011;7379;51.506;11.876;2023-04-15T10:52:52;25.13;;;16.90;;
14584;SDS011;7379;51.506;11.876;2023-04-15T10:55:20;22.33;;;17.60;;
14584;SDS011;7379;51.506;11.876;2023-04-15T10:57:50;24.58;;;17.92;;
14584;SDS011;7379;51.506;11.876;2023-04-15T11:00:19;25.80;;;18.23;;
14584;SDS011;7379;51.506;11.876;2023-04-15T11:02:51;21.47;;;17.10;;
14584;SDS011;7379;51.506;11.876;2023-04-15T11:05:19;24.90;;;19.10;;
14584;SDS011;7379;51.506;11.876;2023-04-15T11:07:52;25.60;;;19.33;;
14584;SDS011;7379;51.506;11.876;2023-04-15T11:13:21;26.20;;;19.47;;
14584;SDS011;7379;51.506;11.876;2023-04-15T11:15:53;25.73;;;19.07;;
14584;SDS011;7379;51.506;11.876;2023-04-15T11:18:23;27.13;;;20.40;;
14584;SDS011;7379;51.506;11.876;2023-04-15T11:20:51;26.43;;;20.00;;
14584;SDS011;7379;51.506;11.876;2023-04-15T11:23:27;27.20;;;20.80;;
14584;SDS011;7379;51.506;11.876;2023-04-15T11:25:56;26.83;;;20.60;;
14584;SDS011;7379;51.506;11.876;2023-04-15T11:28:25;27.70;;;21.50;;
14584;SDS011;7379;51.506;11.876;2023-04-15T11:30:53;26.63;;;21.50;;
14584;SDS011;7379;51.506;11.876;2023-04-15T11:33:21;27.42;;;21.25;;
14584;SDS011;7379;51.506;11.876;2023-04-15T11:35:48;25.83;;;20.87;;
14584;SDS011;7379;51.506;11.876;2023-04-15T11:38:15;25.80;;;20.67;;
14584;SDS011;7379;51.506;11.876;2023-04-15T11:40:44;25.87;;;20.57;;
14584;SDS011;7379;51.506;11.876;2023-04-15T11:43:11;25.90;;;20.43;;
14584;SDS011;7379;51.506;11.876;2023-04-15T11:45:47;26.90;;;21.17;;
14584;SDS011;7379;51.506;11.876;2023-04-15T11:48:16;25.83;;;20.47;;
14584;SDS011;7379;51.506;11.876;2023-04-15T11:50:44;24.87;;;20.03;;
14584;SDS011;7379;51.506;11.876;2023-04-15T11:53:11;24.73;;;19.57;;
14584;SDS011;7379;51.506;11.876;2023-04-15T11:55:44;25.53;;;19.77;;
14584;SDS011;7379;51.506;11.876;2023-04-15T11:58:13;25.63;;;19.43;;
14584;SDS011;7379;51.506;11.876;2023-04-15T12:00:44;25.53;;;20.53;;
14584;SDS011;7379;51.506;11.876;2023-04-15T12:03:13;24.30;;;18.93;;
14584;SDS011;7379;51.506;11.876;2023-04-15T12:06:02;23.83;;;19.77;;
14584;SDS011;7379;51.506;11.876;2023-04-15T12:11:33;20.85;;;17.98;;
14584;SDS011;7379;51.506;11.876;2023-04-15T12:14:03;20.73;;;18.23;;
14584;SDS011;7379;51.506;11.876;2023-04-15T12:16:32;21.13;;;18.10;;
14584;SDS011;7379;51.506;11.876;2023-04-15T12:19:03;21.30;;;18.50;;
14584;SDS011;7379;51.506;11.876;2023-04-15T12:21:36;22.23;;;18.10;;
14584;SDS011;7379;51.506;11.876;2023-04-15T12:24:04;21.17;;;17.00;;
14584;SDS011;7379;51.506;11.876;2023-04-15T12:26:35;18.70;;;16.53;;
14584;SDS011;7379;51.506;11.876;2023-04-15T12:29:04;20.33;;;16.87;;
14584;SDS011;7379;51.506;11.876;2023-04-15T12:31:32;18.63;;;15.93;;
14584;SDS011;7379;51.506;11.876;2023-04-15T12:33:59;19.42;;;16.77;;
14584;SDS011;7379;51.506;11.876;2023-04-15T12:36:28;18.95;;;16.75;;
14584;SDS011;7379;51.506;11.876;2023-04-15T12:39:00;18.10;;;15.63;;
14584;SDS011;7379;51.506;11.876;2023-04-15T12:41:28;17.77;;;15.47;;
14584;SDS011;7379;51.506;11.876;2023-04-15T12:43:56;18.47;;;16.33;;
14584;SDS011;7379;51.506;11.876;2023-04-15T12:46:23;18.23;;;15.73;;
14584;SDS011;7379;51.506;11.876;2023-04-15T12:48:50;18.10;;;15.70;;
14584;SDS011;7379;51.506;11.876;2023-04-15T12:51:18;17.00;;;15.20;;
14584;SDS011;7379;51.506;11.876;2023-04-15T12:53:46;17.70;;;15.13;;
14584;SDS011;7379;51.506;11.876;2023-04-15T12:56:13;15.87;;;14.10;;
14584;SDS011;7379;51.506;11.876;2023-04-15T12:58:40;18.03;;;14.70;;
14584;SDS011;7379;51.506;11.876;2023-04-15T13:01:08;16.77;;;14.05;;
14584;SDS011;7379;51.506;11.876;2023-04-15T13:03:35;16.43;;;14.73;;
14584;SDS011;7379;51.506;11.876;2023-04-15T13:06:02;15.40;;;13.80;;
14584;SDS011;7379;51.506;11.876;2023-04-15T13:08:30;15.73;;;14.00;;
14584;SDS011;7379;51.506;11.876;2023-04-15T13:10:57;14.83;;;13.33;;
14584;SDS011;7379;51.506;11.876;2023-04-15T13:13:24;15.82;;;14.15;;
14584;SDS011;7379;51.506;11.876;2023-04-15T13:15:51;16.70;;;13.20;;
14584;SDS011;7379;51.506;11.876;2023-04-15T13:18:19;14.98;;;13.38;;
14584;SDS011;7379;51.506;11.876;2023-04-15T13:20:47;14.77;;;13.23;;
14584;SDS011;7379;51.506;11.876;2023-04-15T13:23:14;14.73;;;12.90;;
14584;SDS011;7379;51.506;11.876;2023-04-15T13:25:41;14.70;;;12.52;;
14584;SDS011;7379;51.506;11.876;2023-04-15T13:28:09;14.32;;;12.73;;
14584;SDS011;7379;51.506;11.876;2023-04-15T13:30:36;14.57;;;13.07;;
14584;SDS011;7379;51.506;11.876;2023-04-15T13:33:03;13.85;;;12.35;;
14584;SDS011;7379;51.506;11.876;2023-04-15T13:35:32;13.70;;;12.27;;
14584;SDS011;7379;51.506;11.876;2023-04-15T13:37:59;13.18;;;11.65;;
14584;SDS011;7379;51.506;11.876;2023-04-15T13:40:26;13.00;;;11.67;;
14584;SDS011;7379;51.506;11.876;2023-04-15T13:42:53;12.90;;;11.60;;
14584;SDS011;7379;51.506;11.876;2023-04-15T13:45:20;14.25;;;12.02;;
14584;SDS011;7379;51.506;11.876;2023-04-15T13:47:47;13.40;;;12.00;;
14584;SDS011;7379;51.506;11.876;2023-04-15T13:50:13;12.60;;;11.18;;
14584;SDS011;7379;51.506;11.876;2023-04-15T13:52:42;13.18;;;11.38;;
14584;SDS011;7379;51.506;11.876;2023-04-15T13:55:09;11.80;;;10.60;;
14584;SDS011;7379;51.506;11.876;2023-04-15T13:57:35;12.15;;;10.95;;
14584;SDS011;7379;51.506;11.876;2023-04-15T14:00:03;13.45;;;11.35;;
14584;SDS011;7379;51.506;11.876;2023-04-15T14:02:31;11.88;;;10.65;;
14584;SDS011;7379;51.506;11.876;2023-04-15T14:04:58;11.50;;;10.30;;
14584;SDS011;7379;51.506;11.876;2023-04-15T14:07:24;11.47;;;10.37;;
14584;SDS011;7379;51.506;11.876;2023-04-15T14:09:53;11.17;;;10.07;;
14584;SDS011;7379;51.506;11.876;2023-04-15T14:12:20;11.20;;;10.10;;
14584;SDS011;7379;51.506;11.876;2023-04-15T14:14:47;11.23;;;10.10;;
14584;SDS011;7379;51.506;11.876;2023-04-15T14:17:14;11.43;;;10.20;;
14584;SDS011;7379;51.506;11.876;2023-04-15T14:19:41;10.33;;;9.33;;
14584;SDS011;7379;51.506;11.876;2023-04-15T14:22:08;10.90;;;9.80;;
14584;SDS011;7379;51.506;11.876;2023-04-15T14:24:34;10.60;;;9.57;;
14584;SDS011;7379;51.506;11.876;2023-04-15T14:27:02;10.33;;;9.33;;
14584;SDS011;7379;51.506;11.876;2023-04-15T14:29:29;10.70;;;9.60;;
14584;SDS011;7379;51.506;11.876;2023-04-15T14:31:56;10.25;;;9.25;;
14584;SDS011;7379;51.506;11.876;2023-04-15T14:34:23;10.27;;;9.27;;
14584;SDS011;7379;51.506;11.876;2023-04-15T14:36:50;10.60;;;9.50;;
14584;SDS011;7379;51.506;11.876;2023-04-15T14:39:17;10.67;;;9.57;;
14584;SDS011;7379;51.506;11.876;2023-04-15T14:41:44;10.52;;;9.52;;
14584;SDS011;7379;51.506;11.876;2023-04-15T14:44:12;9.90;;;9.00;;
14584;SDS011;7379;51.506;11.876;2023-04-15T14:46:39;9.68;;;8.77;;
14584;SDS011;7379;51.506;11.876;2023-04-15T14:49:06;10.25;;;9.25;;
14584;SDS011;7379;51.506;11.876;2023-04-15T14:51:33;9.85;;;8.95;;